Latest Coastal Weather Observations for Cape Otway

IDV60701

Issued at 3:51 am EST Wednesday 5 August 2015 (issued every 10 minutes, with the page automatically refreshed every 10 minutes)

About coastal observations | Map of coastal stations | Coastal observations for VIC | Marine services | Other Formats
Station Details ID: 090015 Name: CAPE OTWAY LIGHTHOUSE Lat: -38.86 Lon: 143.51 Height: 82.0 m
Data from the previous 72 hours. | See also: Recent months at Cape Otway
Date/Time
EST
Temp

°C
Wind Pressure Rain
since 9am
mm
Weather Cloud Vis
km
Sea
Height
m
Swell
Dir
 
Speed
knots
Gust
knots
hPa Trend Height
m
Period
s
Dir
05/03:30am 9.5 WSW 23 34 1009.4 - 10.2 - - - - - - -
05/03:00am 9.9 WSW 23 35 1009.7 - 10.2 - - - - - - -
05/02:34am 9.4 WSW 19 33 1009.7 - 10.0 - - - - - - -
05/02:30am 9.7 WSW 19 28 1009.7 - 10.0 - - - - - - -
05/02:00am 9.7 WSW 23 33 1009.7 - 10.0 - - - - - - -
05/01:32am 9.1 WSW 21 31 1009.7 - 10.0 - - - - - - -
05/01:30am 9.1 WSW 21 29 1009.7 - 10.0 - - - - - - -
05/01:00am 9.4 W 28 41 1009.7 - 8.0 - - - - - - -
05/12:30am 10.6 W 26 36 1009.5 - 7.0 - - - - - - -
05/12:00am 10.2 W 24 35 1009.9 - 6.8 - - - - - - -
 
Date/Time
EST
Temp

°C
Wind Pressure Rain
since 9am
mm
Weather Cloud Vis
km
Sea
Height
m
Swell
Dir
 
Speed
knots
Gust
knots
hPa Trend Height
m
Period
s
Dir
04/11:30pm 10.0 W 26 36 1010.3 - 6.8 - - - - - - -
04/11:00pm 10.6 W 26 36 1010.5 - 6.0 - - - - - - -
04/10:51pm 10.5 W 30 37 1010.5 - 6.0 - - - - - - -
04/10:30pm 9.8 WNW 19 29 1010.9 - 6.0 - - - - - - -
04/10:00pm 9.7 WNW 23 35 1011.5 - 6.0 - - - - - - -
04/09:30pm 9.1 WNW 21 33 1011.8 - 5.8 - - - - - - -
04/09:00pm 9.0 WNW 20 32 1012.1 - 3.8 - - - - - - -
04/08:30pm 9.1 WNW 20 31 1012.3 - 3.8 - - - - - - -
04/08:11pm 9.3 NW 18 31 1012.6 - 2.6 - - - - - - -
04/08:00pm 9.4 NW 17 26 1012.7 - 2.2 - - - - - - -
04/07:30pm 9.8 NW 19 31 1013.1 - 2.2 - - - - - - -
04/07:27pm 10.1 NW 19 33 1013.0 - 2.2 - - - - - - -
04/07:00pm 10.3 W 21 33 1013.1 - 2.2 - - - - - - -
04/06:35pm 9.6 WNW 20 31 1013.6 - 2.2 - - - - - - -
04/06:30pm 9.8 WNW 20 27 1013.6 - 2.2 - - - - - - -
04/06:00pm 9.2 WNW 19 33 1014.1 - 2.0 - - - - - - -
04/05:49pm 9.2 NW 16 26 1013.9 - 1.8 - - - - - - -
04/05:30pm 9.1 WNW 16 25 1014.2 - 1.8 - - - - - - -
04/05:01pm 9.2 WNW 16 26 1014.5 - 1.6 - - - - - - -
04/05:00pm 9.2 WNW 16 24 1014.6 - 1.6 - - - - - - -
04/04:30pm 9.1 WNW 19 29 1014.9 - 1.2 - - - - - - -
04/04:00pm 9.3 WNW 16 29 1015.2 - 0.4 - - - - - - -
04/03:30pm 9.0 WNW 15 25 1015.9 - 0.2 - - - - - - -
04/03:00pm 9.5 WNW 19 29 1016.2 - 0.0 - - - - - - -
04/02:30pm 10.1 WNW 19 29 1016.3 - 0.0 - - - - - - -
04/02:00pm 10.6 WNW 16 27 1017.0 - 0.0 - - - - - - -
04/01:37pm 9.9 NW 16 26 1017.4 - 0.0 - - - - - - -
04/01:30pm 9.8 NW 15 23 1017.6 - 0.0 - - - - - - -
04/01:00pm 8.8 NW 15 26 1018.4 - 0.0 - - - - - - -
04/12:54pm 8.7 NW 16 26 1018.6 - 0.0 - - - - - - -
04/12:30pm 9.2 WNW 15 23 1019.0 - 0.0 - - - - - - -
04/12:10pm 8.9 NW 15 29 1019.4 - 0.0 - - - - - - -
04/12:00pm 8.7 NW 15 22 1019.7 - 0.0 - - - - - - -
04/11:30am 7.5 NW 15 24 1020.3 - 0.0 - - - - - - -
04/11:00am 8.1 NW 12 23 1020.4 - 0.0 - - - - - - -
04/10:30am 7.2 NW 12 21 1020.8 - 0.0 - - - - - - -
04/10:00am 6.4 NNW 13 22 1020.9 - 0.0 - - - - - - -
04/09:30am 6.5 NW 13 21 1021.1 - 0.0 - - - - - - -
04/09:00am 6.3 NW 13 20 1021.3 - 2.2 - - - - - - -
04/08:30am 5.9 NNW 12 18 1021.3 - 2.2 - - - - - - -
04/08:00am 5.7 NW 13 20 1021.6 - 2.2 - - - - - - -
04/07:30am 5.6 NW 13 21 1021.3 - 2.0 - - - - - - -
04/07:00am 5.1 NW 10 15 1021.6 - 1.6 - - - - - - -
04/06:30am 5.8 NW 13 20 1021.6 - 1.6 - - - - - - -
04/06:00am 4.8 NNW 11 15 1021.6 - 1.4 - - - - - - -
04/05:30am 4.7 NNW 11 15 1021.5 - 1.4 - - - - - - -
04/05:00am 5.4 NW 10 17 1021.6 - 1.4 - - - - - - -
04/04:30am 4.9 NNW 10 13 1021.7 - 1.0 - - - - - - -
04/04:00am 5.6 NW 10 13 1021.5 - 0.6 - - - - - - -
04/03:30am 4.7 N 10 13 1021.7 - 0.4 - - - - - - -
04/03:00am 5.5 NNW 9 13 1022.3 - 0.4 - - - - - - -
04/02:30am 6.1 NNW 7 15 1022.2 - 0.4 - - - - - - -
04/02:00am 7.4 W 7 11 1022.4 - 0.4 - - - - - - -
04/01:38am 7.7 W 15 25 1022.4 - 0.4 - - - - - - -
04/01:30am 8.5 WSW 15 23 1022.2 - 0.4 - - - - - - -
04/01:00am 8.1 W 13 20 1022.4 - 0.4 - - - - - - -
04/12:30am 7.1 SW 6 9 1022.8 - 0.4 - - - - - - -
04/12:00am 7.3 W 6 14 1023.1 - 0.4 - - - - - - -
 
Date/Time
EST
Temp

°C
Wind Pressure Rain
since 9am
mm
Weather Cloud Vis
km
Sea
Height
m
Swell
Dir
 
Speed
knots
Gust
knots
hPa Trend Height
m
Period
s
Dir
03/11:30pm 8.3 SW 12 18 1022.7 - 0.4 - - - - - - -
03/11:00pm 8.1 SW 17 25 1022.9 - 0.4 - - - - - - -
03/10:53pm 8.2 SW 17 25 1022.8 - 0.4 - - - - - - -
03/10:30pm 8.1 W 10 14 1023.1 - 0.4 - - - - - - -
03/10:10pm 8.0 WSW 16 26 1023.2 - 0.4 - - - - - - -
03/10:00pm 8.4 SW 19 25 1023.0 - 0.4 - - - - - - -
03/09:30pm 8.6 SW 15 20 1023.2 - 0.4 - - - - - - -
03/09:00pm 8.6 SW 17 23 1023.1 - 0.4 - - - - - - -
03/08:30pm 8.5 SW 14 19 1022.9 - 0.4 - - - - - - -
03/08:00pm 8.4 SW 16 22 1023.0 - 0.4 - - - - - - -
03/07:30pm 8.4 SW 18 24 1022.7 - 0.4 - - - - - - -
03/07:00pm 7.5 W 13 24 1022.7 - 0.4 - - - - - - -
03/06:30pm 7.7 W 15 21 1022.2 - 0.4 - - - - - - -
03/06:00pm 8.0 W 12 19 1021.8 - 0.4 - - - - - - -
03/05:30pm 8.2 WSW 14 21 1021.5 - 0.4 - - - - - - -
03/05:00pm 7.9 W 16 22 1021.1 - 0.4 - - - - - - -
03/04:30pm 7.6 W 13 32 1020.8 - 0.4 - - - - - - -
03/04:19pm 8.2 SW 18 29 1020.6 - 0.4 - - - - - - -
03/04:00pm 8.6 WSW 17 25 1020.5 - 0.4 - - - - - - -
03/03:59pm 8.6 WSW 18 25 1020.6 - 0.4 - - - - - - -
03/03:30pm 7.9 SSW 21 32 1020.4 - 0.4 - - - - - - -
03/03:26pm 7.7 SSW 21 31 1020.5 - 0.4 - - - - - - -
03/03:16pm 7.6 SSW 25 31 1020.2 - 0.4 - - - - - - -
03/03:09pm 8.8 SW 21 31 1020.2 - 0.4 - - - - - - -
03/03:00pm 8.8 SW 21 28 1020.2 - 0.4 - - - - - - -
03/02:30pm 8.4 SW 21 27 1019.7 - 0.4 - - - - - - -
03/02:01pm 8.3 SW 22 32 1019.3 - 0.4 - - - - - - -
03/02:00pm 8.4 SW 22 31 1019.4 - 0.4 - - - - - - -
03/01:49pm 8.0 SW 22 30 1019.4 - 0.4 - - - - - - -
03/01:40pm 7.3 W 17 29 1019.3 - 0.4 - - - - - - -
03/01:30pm 6.5 W 20 28 1019.5 - 0.4 - - - - - - -
03/01:00pm 7.3 WSW 20 30 1019.4 - 0.4 - - - - - - -
03/12:34pm 7.5 SW 28 48 1019.0 - 0.4 - - - - - - -
03/12:30pm 8.4 SW 26 36 1019.0 - 0.4 - - - - - - -
03/12:27pm 8.5 SW 26 36 1019.1 - 0.4 - - - - - - -
03/12:22pm 8.3 SW 28 36 1019.0 - 0.4 - - - - - - -
03/12:04pm 7.9 WSW 20 30 1019.0 - 0.4 - - - - - - -
03/12:00pm 7.8 WSW 22 30 1019.1 - 0.4 - - - - - - -
03/11:30am 7.4 SW 27 37 1018.8 - 0.4 - - - - - - -
03/11:18am 7.2 SSW 25 40 1018.8 - 0.4 - - - - - - -
03/11:16am 7.1 SSW 25 40 1018.8 - 0.4 - - - - - - -
03/11:01am 7.2 WSW 25 35 1018.7 - 0.4 - - - - - - -
03/11:00am 7.4 WSW 26 35 1018.7 - 0.4 - - - - - - -
03/10:48am 7.5 WSW 17 27 1018.5 - 0.2 - - - - - - -
03/10:30am 6.3 SW 20 33 1018.5 - 0.2 - - - - - - -
03/10:26am 6.1 SW 21 38 1018.4 - 0.2 - - - - - - -
03/10:14am 6.8 SW 33 43 1017.8 - 0.0 - - - - - - -
03/10:00am 8.3 WSW 22 32 1017.4 - 0.0 - - - - - - -
03/09:30am 7.8 WSW 27 37 1016.9 - 0.0 - - - - - - -
03/09:02am 7.8 SW 33 43 1016.4 - 0.0 - - - - - - -
03/09:00am 7.7 SW 35 43 1016.3 - 9.0 - - - - - - -
03/08:30am 7.5 WSW 24 35 1015.8 - 9.0 - - - - - - -
03/08:24am 7.0 WSW 19 31 1015.7 - 9.0 - - - - - - -
03/08:15am 5.9 WSW 22 42 1015.8 - 9.0 - - - - - - -
03/08:00am 7.4 SW 34 46 1014.8 - 9.0 - - - - - - -
03/07:30am 7.9 WSW 30 41 1013.9 - 9.0 - - - - - - -
03/07:02am 6.1 SW 37 49 1013.1 - 9.0 - - - - - - -
03/07:01am 6.2 WSW 25 48 1013.2 - 9.0 - - - - - - -
03/07:00am 6.3 WSW 22 45 1013.4 - 9.0 - - - - - - -
03/06:58am 6.2 WSW 22 45 1013.4 - 8.8 - - - - - - -
03/06:54am 6.2 SW 33 45 1013.0 - 8.6 - - - - - - -
03/06:30am 8.1 WSW 28 39 1012.3 - 8.4 - - - - - - -
03/06:08am 6.8 SW 25 49 1012.2 - 8.4 - - - - - - -
03/06:07am 6.9 SW 26 49 1012.2 - 8.4 - - - - - - -
03/06:00am 6.5 SW 40 55 1012.0 - 8.4 - - - - - - -
03/05:53am 7.1 SW 45 55 1011.6 - 8.4 - - - - - - -
03/05:51am 8.3 WSW 29 49 1011.6 - 8.4 - - - - - - -
03/05:30am 7.6 WSW 24 35 1011.3 - 8.4 - - - - - - -
03/05:23am 7.2 WSW 24 38 1011.4 - 8.4 - - - - - - -
03/05:17am 7.2 WSW 27 45 1011.4 - 8.4 - - - - - - -
03/05:07am 7.2 SW 39 49 1011.0 - 8.4 - - - - - - -
03/05:06am 7.2 SW 41 49 1010.9 - 8.4 - - - - - - -
03/05:00am 8.2 WSW 29 41 1010.8 - 8.4 - - - - - - -
03/04:30am 7.1 WSW 32 47 1010.2 - 8.4 - - - - - - -
03/04:00am 8.0 WSW 31 47 1009.8 - 8.2 - - - - - - -
03/03:30am 8.4 WSW 28 42 1009.3 - 8.0 - - - - - - -
03/03:00am 9.0 W 28 43 1009.2 - 8.0 - - - - - - -
03/02:30am 8.6 WSW 31 45 1008.7 - 8.0 - - - - - - -
03/02:00am 8.2 W 34 52 1008.3 - 8.0 - - - - - - -
03/01:30am 9.4 W 32 43 1008.0 - 7.8 - - - - - - -
03/01:00am 7.5 W 35 59 1007.9 - 7.6 - - - - - - -
03/12:54am 5.9 W 40 59 1008.1 - 7.4 - - - - - - -
03/12:52am 9.0 W 26 59 1007.8 - 6.2 - - - - - - -
03/12:30am 9.1 W 26 38 1007.7 - 6.2 - - - - - - -
03/12:00am 9.0 W 32 51 1007.7 - 5.6 - - - - - - -
 
Date/Time
EST
Temp

°C
Wind Pressure Rain
since 9am
mm
Weather Cloud Vis
km
Sea
Height
m
Swell
Dir
 
Speed
knots
Gust
knots
hPa Trend Height
m
Period
s
Dir
02/11:30pm 10.2 W 28 43 1007.5 - 5.0 - - - - - - -
02/11:00pm 10.5 W 32 47 1007.3 - 5.0 - - - - - - -
02/10:30pm 10.2 W 27 42 1007.6 - 5.0 - - - - - - -
02/10:00pm 10.0 W 25 39 1007.6 - 4.8 - - - - - - -
02/09:43pm 9.3 W 22 35 1007.9 - 4.6 - - - - - - -
02/09:40pm 9.1 WNW 22 35 1008.0 - 4.6 - - - - - - -
02/09:30pm 9.1 W 33 47 1008.0 - 4.6 - - - - - - -
02/09:00pm 10.4 WNW 26 42 1007.9 - 4.6 - - - - - - -
02/08:30pm 10.5 W 28 39 1007.9 - 4.6 - - - - - - -
02/08:00pm 10.0 W 26 39 1008.0 - 4.4 - - - - - - -
02/07:30pm 9.0 W 32 48 1008.1 - 4.4 - - - - - - -
02/07:27pm 9.3 W 36 48 1007.8 - 4.4 - - - - - - -
02/07:00pm 10.3 W 25 36 1008.0 - 4.4 - - - - - - -
02/06:30pm 10.3 W 26 39 1007.9 - 4.4 - - - - - - -
02/06:00pm 10.0 W 27 42 1007.7 - 4.4 - - - - - - -
02/05:30pm 9.7 W 26 36 1007.6 - 4.4 - - - - - - -
02/05:06pm 9.9 W 27 38 1007.3 - 4.4 - - - - - - -
02/05:00pm 9.8 W 28 36 1007.4 - 4.4 - - - - - - -
02/04:30pm 10.0 W 24 36 1007.2 - 4.2 - - - - - - -
02/04:00pm 9.7 W 25 37 1007.3 - 4.2 - - - - - - -
02/03:31pm 9.5 W 23 34 1007.5 - 4.2 - - - - - - -
02/03:30pm 9.5 W 23 32 1007.5 - 4.2 - - - - - - -
02/03:00pm 8.9 W 22 31 1007.6 - 4.0 - - - - - - -
02/02:50pm 9.2 W 21 31 1007.5 - 3.8 - - - - - - -
02/02:30pm 8.9 W 20 28 1007.1 - 3.8 - - - - - - -
02/02:00pm 8.6 WSW 22 33 1007.1 - 3.4 - - - - - - -
02/01:30pm 9.0 WSW 25 35 1007.2 - 2.8 - - - - - - -
02/01:26pm 9.6 W 25 35 1007.1 - 2.2 - - - - - - -
02/01:00pm 9.9 WNW 27 42 1006.5 - 1.2 - - - - - - -
02/12:30pm 10.1 WNW 23 36 1006.8 - 0.4 - - - - - - -
02/12:00pm 10.7 WNW 23 37 1007.2 - 0.0 - - - - - - -
02/11:30am 11.1 WNW 22 33 1007.8 - 0.0 - - - - - - -
02/11:00am 10.5 NW 22 32 1008.1 - 0.0 - - - - - - -
02/10:30am 10.0 NW 20 30 1008.2 - 0.0 - - - - - - -
02/10:00am 9.6 NW 21 33 1008.7 - 0.0 - - - - - - -
02/09:30am 9.3 NW 19 32 1008.9 - 0.0 - - - - - - -
02/09:02am 8.8 NW 18 30 1009.1 - 0.0 - - - - - - -
02/09:00am 8.9 NW 18 27 1009.2 - 0.0 - - - - - - -
02/08:30am 8.4 NW 19 29 1009.5 - 0.0 - - - - - - -
02/08:00am 7.9 NW 19 30 1009.6 - 0.0 - - - - - - -
02/07:30am 7.8 NW 17 27 1009.6 - 0.0 - - - - - - -
02/07:04am 7.7 NW 17 31 1009.6 - 0.0 - - - - - - -
02/07:00am 7.7 NW 16 25 1009.6 - 0.0 - - - - - - -
02/06:30am 8.0 NW 17 28 1009.7 - 0.0 - - - - - - -
02/06:00am 7.8 NW 17 27 1010.1 - 0.0 - - - - - - -
02/05:56am 7.8 NW 16 27 1010.0 - 0.0 - - - - - - -
02/05:30am 8.0 NW 15 23 1010.3 - 0.0 - - - - - - -
02/05:04am 7.9 NW 15 28 1010.4 - 0.0 - - - - - - -
02/05:00am 7.8 NW 14 23 1010.6 - 0.0 - - - - - - -
02/04:30am 8.2 NW 15 24 1010.9 - 0.0 - - - - - - -
02/04:19am 8.3 NW 15 26 1011.0 - 0.0 - - - - - - -
02/04:00am 8.3 NW 17 25 1011.1 - 0.0 - - - - - - -

Other Formats:

Comma delimited format used in spreadsheet applications
http://www.bom.gov.au/fwo/IDV60701/IDV60701.94842.axf

JavaScript Object Notation format (JSON) in row-major order
http://www.bom.gov.au/fwo/IDV60701/IDV60701.94842.json